Accueil
METAR-TAF:

METAR-TAF

Aéroports :

Aéroport international de Târgu Mureș

Târgu Mureş, Roumanie

latitude: 46-32N, longitude: 024-32E, altitude: 308 m

Observation

Le bulletin a été fait il y a 36 minutes, à 18:30 UTC
Vent calme
Température 27°C
Humidité 66%
Pression 1012 hPa
Visibilité 10 km ou plus

METAR: LRTM 131830Z AUTO 00000KT 9999 NCD 27/20 Q1012

Heure: 22:06 (19:06 UTC)

Prévision

Le bulletin a été fait il y a 5 heures et 6 minutes, à 14:00 UTC
Prévision valable du 13 à 15 UTC au 14 à 00 UTC
Vent 4 kt de direction variable
Visibilité 10 km ou plus
pas de nuages en-dessous de 1500 mètres et pas de cumulonimbus.

TAF: LRTM 131400Z 1315/1400 VRB04KT CAVOK

Observations et prévisions météorologiques de plus de 4000 aéroports (messages METAR et TAF).

Les stations disponibles sont représentées par des disques jaunes et rouges sur la carte.

Passer la souris dessus pour voir le nom de la station.

Cliquer dessus pour voir les observations et prévisions météorologiques.

Pour changer de carte: cliquez sur les boutons verts avec une croix noire pour zoomer, sur le bouton vert avec un tiret pour effectuer un zoom arrière, ou sur les flèches vertes pour les cartes adjacentes.


METAR-TAF: